Domov               UVHVVR             MKGP            O straneh              
ZDRAVSTVENO VARSTVO RASTLIN
  MREŽA AGROMET. POSTAJ
 ► PROGNOSTIČNA OBVESTILA
AGROMETEOROLOŠKI PODATKI -
ARSO
OBVLADOVANJE TVEGANJ ZARADI
NEUGODNIH VREMENSKIH RAZMER
  ► NARAVNE NESREČE
  ► SUŠA/MOČA
  ► NAMAKANJE
  ► ŽLED (gozdarstvo)
KARTOGRAFSKI PRIKAZI
SPLETNE POVEZAVE
PROJEKTI IN PUBLIKACIJE

AGROMETEOROLOŠKA MREŽA: VREMENSKE POSTAJE IN FENOLOŠKA OPAZOVANJA

Pregled podatkov za lokacijo Škofja vas, meteorološka postaja 49151

Pregled senzorjev na lokaciji

ID Ime Zadnja
vrednost
Datum
zadnje
spremembe
Tip
senzorja
3712 Temperatura 2 m ( °C) 29,29 °C 17.8.2017 18:30 50YA
3713 Relativna vlaga 2 m (% RH) 49,59 % RH 17.8.2017 18:30 50YA
3714 Omočenost lista (U) 0 U 17.8.2017 18:30 A730WET
3715 Sončno sevanje (W/m2) 118,32 W/m2 17.8.2017 18:30 Pyranometer SP-Lite
3716 Temperatura tal ( °C) 25,12 °C 17.8.2017 18:30 99TG411E
3717 Hitrost vetra (km/h) 0,05 km/h 17.8.2017 18:30 566.2S-176 (200km/h)
3718 Smer vetra (°) 120,64 ° 17.8.2017 18:30 566.2S-130
3719 Padavine 0.2 mm (mm) 0 mm 17.8.2017 18:30 Rain-O-Matic

Pregled podatkov zadnjih 24 ur

Zap.
št.
Datum in čas Škofja vas
Hitrost
vetra
Omočenost
lista
Padavine
0.2
mm
Relativna
vlaga
2
m
Smer
vetra
Sončno
sevanje
Temperatura
2
m
Temperatura
tal
0 17.8.2017 17:30 0,05 0 0 49,59 120,64 118,32 29,29 25,12
1 17.8.2017 17:00 0,68 0 0 46,62 154,42 164,13 29,81 25,14
2 17.8.2017 16:30 0,05 0 0 45,83 114,5 247,59 30,08 25,08
3 17.8.2017 16:00 0,05 0 0 45,23 169,37 294,01 30,32 24,98
4 17.8.2017 15:30 0,05 0 0 45,98 116,9 331,03 30,25 24,84
5 17.8.2017 15:00 0,05 0 0 45,6 33,9 369,73 30,12 24,67
6 17.8.2017 14:30 1,08 0 0 46,2 220,08 416,45 29,84 24,5
7 17.8.2017 14:00 0,05 0 0 45,88 47,52 448,98 29,7 24,32
8 17.8.2017 13:30 0,05 0 0 48,66 16,32 469,67 28,99 24,06
9 17.8.2017 13:00 0,05 0 0 49,28 77,56 488,53 28,82 23,96
10 17.8.2017 12:30 0,05 0 0 50,53 91,44 497,05 27,97 23,79
11 17.8.2017 12:00 0,05 0 0 52,23 165,74 501,29 27,26 23,66
12 17.8.2017 11:30 0,8 0 0 52,78 289,38 488,65 27,04 23,48
13 17.8.2017 11:00 2,21 0 0 54,19 169,68 465,77 26,7 23,41
14 17.8.2017 10:30 0,05 0 0 56,23 202,29 436,8 26,25 23,39
15 17.8.2017 10:00 0,05 0 0 59,14 167,77 404,43 25,54 23,36
16 17.8.2017 09:30 0,05 0 0 64,33 357,53 366,25 24,57 23,31
17 17.8.2017 09:00 0,05 0 0 68,69 298,09 323,43 23,39 23,25
18 17.8.2017 08:30 0,05 0 0 72,16 254,68 274,17 22,35 23,23
19 17.8.2017 08:00 0,05 0 0 77,14 277,12 224,4 21,08 23,2
20 17.8.2017 07:30 0,05 0 0 80,54 288,25 170,93 19,95 23,15
21 17.8.2017 07:00 0,16 3 0 84,68 314,28 119,3 18,65 23,13
22 17.8.2017 06:30 0,05 10 0 88,81 298,96 76,39 17,58 23,07
23 17.8.2017 06:00 0,05 10 0 93,62 300,38 39,58 16,34 22,95
24 17.8.2017 05:30 0,05 10 0 96,95 337,53 7,72 15,39 22,97
25 17.8.2017 05:00 0,05 10 0 96,51 343,56 1,13 15,54 23,05
26 17.8.2017 04:30 0,05 10 0 96,94 220,13 0,52 15,64 23,13
27 17.8.2017 04:00 0,05 10 0 95,24 56,96 0,52 16,15 23,22
28 17.8.2017 03:30 0,05 10 0 92,07 293,88 0,64 17 23,33
29 17.8.2017 03:00 0,05 10 0 91,38 336,92 0,55 17,5 23,41
30 17.8.2017 02:30 0,05 10 0 90,48 261,97 0,58 17,91 23,51
31 17.8.2017 02:00 0,05 10 0 91,04 29,73 0,61 17,92 23,58
32 17.8.2017 01:30 0,05 10 0 89,98 243,96 0,55 18,1 23,66
33 17.8.2017 01:00 0,05 10 0 89,65 256,74 0,55 18,25 23,73
34 17.8.2017 00:30 0,05 10 0 87,8 311,7 0,55 18,61 23,79
35 17.8.2017 00:00 0,05 10 0 89,11 250,25 18,59 23,86
36 16.8.2017 23:30 0,05 10 0 89,64 30,82 18,65 23,95
37 16.8.2017 23:00 0,05 9 0 84,07 323,52 19,37 24,02
38 16.8.2017 22:30 0,05 4 0 80,83 303,32 19,96 24,1
39 16.8.2017 22:00 0,05 8 0 82,46 292,61 20,06 24,14
40 16.8.2017 21:30 0,05 8 0 80,59 293,1 20,18 24,17
41 16.8.2017 21:00 0,05 1 0 74,67 230,58 20,94 24,27
42 16.8.2017 20:30 0,05 0 0 72,19 305,81 21,36 24,34
43 16.8.2017 20:00 0,05 0 0 69,86 291,55 21,9 24,36
44 16.8.2017 19:30 1,57 0 0 67,4 267,69 22,6 24,38
© 2011 Ministrstvo za kmetijstvo, gozdarstvo in prehrano. Vse pravice pridržane.